Time;durP1;ratioP1;P1;durP2;ratioP2;P2;SDS_P1;SDS_P2;PMS_P1;PMS_P2;Temp;Humidity;BMP_temperature;BMP_pressure;BME280_temperature;BME280_humidity;BME280_pressure;Samples;Min_cycle;Max_cycle;Signal;HPM_P1;HPM_P2
2023/02/17 00:01:23;;;;;;;12.18;6.63;;;;;;;13.38;50.76;97989.75;4927681;28;20298;-76
2023/02/17 00:03:49;;;;;;;9.90;6.75;;;;;;;13.15;51.26;97991.53;4965100;28;20203;-76
2023/02/17 00:06:16;;;;;;;9.52;7.10;;;;;;;13.00;51.53;97992.09;4960262;28;20369;-76
2023/02/17 00:08:42;;;;;;;10.55;5.68;;;;;;;13.10;51.71;97989.63;4962769;28;20687;-76
2023/02/17 00:11:07;;;;;;;9.65;6.28;;;;;;;12.96;51.74;97988.38;4948609;28;20326;-75
2023/02/17 00:13:32;;;;;;;10.02;6.57;;;;;;;13.24;51.29;97981.44;4965500;28;20172;-76
2023/02/17 00:15:58;;;;;;;10.40;6.22;;;;;;;13.15;51.61;97975.06;4949002;28;20632;-76
2023/02/17 00:18:24;;;;;;;10.00;6.25;;;;;;;13.17;51.46;97980.81;4948238;28;20196;-76
2023/02/17 00:20:49;;;;;;;9.20;6.25;;;;;;;13.08;51.79;97990.91;4944398;28;20230;-76
2023/02/17 00:23:15;;;;;;;10.95;7.05;;;;;;;13.01;51.65;97985.84;4963276;28;20795;-76
2023/02/17 00:25:40;;;;;;;8.75;6.10;;;;;;;13.17;51.96;97992.06;4947545;28;20195;-77
2023/02/17 00:28:06;;;;;;;10.88;6.50;;;;;;;13.20;51.68;97988.97;4945425;28;20248;-76
2023/02/17 00:30:34;;;;;;;10.93;6.30;;;;;;;13.24;51.62;97986.66;4932472;28;20192;-76
2023/02/17 00:33:00;;;;;;;9.15;6.30;;;;;;;13.10;51.80;97975.75;4964877;28;20377;-76
2023/02/17 00:35:25;;;;;;;8.55;6.05;;;;;;;13.26;51.40;97980.19;4965319;28;20357;-76
2023/02/17 00:37:50;;;;;;;12.55;6.50;;;;;;;13.30;51.51;97973.41;4949007;28;20222;-76
2023/02/17 00:40:16;;;;;;;12.77;6.40;;;;;;;13.18;51.62;97970.13;4960521;28;20191;-76
2023/02/17 00:42:41;;;;;;;8.68;6.07;;;;;;;13.16;52.10;97966.97;4960779;28;20202;-76
2023/02/17 00:45:07;;;;;;;12.13;7.22;;;;;;;13.19;51.99;97973.53;4944513;28;20882;-76
2023/02/17 00:47:33;;;;;;;11.98;6.32;;;;;;;13.38;51.21;97969.63;4947552;28;20164;-76
2023/02/17 00:49:58;;;;;;;10.35;6.60;;;;;;;13.17;52.43;97952.84;4968799;28;20293;-76
2023/02/17 00:52:24;;;;;;;9.35;5.93;;;;;;;13.31;51.85;97966.34;4963526;28;20390;-76
2023/02/17 00:54:49;;;;;;;10.15;6.85;;;;;;;13.25;52.08;97965.50;4962291;28;20214;-76
2023/02/17 00:57:14;;;;;;;10.82;6.00;;;;;;;12.99;52.65;97966.19;4945866;28;20586;-76
2023/02/17 00:59:40;;;;;;;12.23;6.75;;;;;;;12.99;52.77;97972.22;4962704;28;20683;-76
2023/02/17 01:02:05;;;;;;;9.45;6.47;;;;;;;13.13;52.15;97964.84;4963677;28;20097;-76
2023/02/17 01:04:30;;;;;;;11.00;6.30;;;;;;;13.09;52.84;97966.31;4963887;28;20206;-76
2023/02/17 01:06:56;;;;;;;9.77;5.95;;;;;;;13.05;52.84;97976.47;4947873;28;20211;-76
2023/02/17 01:09:21;;;;;;;11.57;5.90;;;;;;;12.52;54.35;97968.09;4964208;28;20195;-76
2023/02/17 01:11:47;;;;;;;8.73;5.70;;;;;;;12.65;54.41;97976.69;4963562;28;20257;-76
2023/02/17 01:14:15;;;;;;;12.55;6.53;;;;;;;13.23;53.07;97970.19;4947405;28;20206;-76
2023/02/17 01:16:45;;;;;;;11.60;7.03;;;;;;;13.13;53.52;97961.44;4981191;28;20441;-76
2023/02/17 01:19:13;;;;;;;11.63;6.65;;;;;;;13.16;53.11;97968.78;4946102;28;20168;-76
2023/02/17 01:21:39;;;;;;;9.80;6.72;;;;;;;12.80;54.02;97969.06;4964821;28;20194;-76
2023/02/17 01:24:05;;;;;;;11.27;6.15;;;;;;;12.84;54.81;97970.16;4946166;28;20297;-76
2023/02/17 01:26:32;;;;;;;8.80;6.20;;;;;;;12.98;54.28;97975.06;4963737;28;20152;-76
2023/02/17 01:28:58;;;;;;;9.23;5.60;;;;;;;13.03;54.28;97956.84;4944289;28;20202;-76
2023/02/17 01:31:25;;;;;;;10.93;7.20;;;;;;;12.99;54.30;97953.94;4962935;28;20642;-76
2023/02/17 01:33:52;;;;;;;10.15;5.97;;;;;;;13.12;54.04;97955.41;4962996;28;20280;-76
2023/02/17 01:36:18;;;;;;;11.85;6.30;;;;;;;13.08;54.43;97962.94;4947444;28;20653;-76
2023/02/17 01:38:45;;;;;;;9.85;6.40;;;;;;;13.01;54.97;97974.59;4963653;28;20301;-76
2023/02/17 01:41:12;;;;;;;9.65;6.10;;;;;;;13.15;54.61;97973.22;4920235;28;20258;-76
2023/02/17 01:43:37;;;;;;;9.02;6.07;;;;;;;13.13;54.93;97967.44;4946640;28;20160;-75
2023/02/17 01:46:04;;;;;;;11.73;6.82;;;;;;;13.09;55.20;97974.16;4946863;28;20316;-75
2023/02/17 01:48:31;;;;;;;11.68;6.50;;;;;;;12.58;56.83;97958.56;4937026;28;20275;-76
2023/02/17 01:51:03;;;;;;;10.27;6.20;;;;;;;13.10;55.27;97960.84;4959759;28;20357;-76
2023/02/17 01:53:35;;;;;;;11.20;5.85;;;;;;;13.18;55.50;97956.25;4930160;28;20033;-76
2023/02/17 01:56:01;;;;;;;10.80;6.32;;;;;;;12.94;56.03;97964.31;4963159;28;20293;-77
2023/02/17 01:58:27;;;;;;;9.15;6.40;;;;;;;12.67;56.93;97964.94;4943500;28;20216;-76
2023/02/17 02:00:55;;;;;;;9.98;6.68;;;;;;;12.71;57.58;97960.03;4972339;28;20109;-76
2023/02/17 02:03:21;;;;;;;11.80;6.80;;;;;;;12.78;57.44;97962.50;4977334;22;20085;-78
2023/02/17 02:05:46;;;;;;;10.98;7.05;;;;;;;12.61;58.55;97954.66;4954820;28;20217;-75
2023/02/17 02:08:12;;;;;;;12.07;6.43;;;;;;;12.77;58.60;97961.72;4959868;28;20645;-75
2023/02/17 02:10:38;;;;;;;11.65;7.05;;;;;;;12.48;59.37;97938.28;4960389;28;20359;-75
2023/02/17 02:13:03;;;;;;;9.32;6.35;;;;;;;12.65;59.28;97945.34;4959807;28;20293;-75
2023/02/17 02:15:36;;;;;;;10.77;7.00;;;;;;;12.56;59.69;97934.50;4941466;28;20277;-75
2023/02/17 02:18:39;;;;;;;14.30;6.82;;;;;;;12.82;59.68;97925.19;4959825;28;20301;-75
2023/02/17 02:21:24;;;;;;;10.95;6.30;;;;;;;12.36;60.67;97940.97;4957639;28;20184;-75
2023/02/17 02:23:58;;;;;;;11.25;6.60;;;;;;;12.97;58.81;97935.09;4957348;28;20308;-75
2023/02/17 02:26:54;;;;;;;11.50;6.40;;;;;;;12.84;59.54;97925.75;4938566;28;20371;-75
2023/02/17 02:29:19;;;;;;;;;;;;;;;12.79;59.93;97938.75;4909699;28;20365;-75
2023/02/17 02:32:12;;;;;;;11.48;6.78;;;;;;;12.97;59.52;97931.66;4921681;28;19971;-75
2023/02/17 02:34:46;;;;;;;15.20;8.13;;;;;;;13.02;59.52;97929.09;4942123;28;20184;-75
2023/02/17 02:37:26;;;;;;;13.02;7.10;;;;;;;12.99;59.55;97926.97;4943141;28;20134;-75
2023/02/17 02:39:53;;;;;;;10.65;6.30;;;;;;;13.08;59.04;97928.16;4956366;28;20134;-75
2023/02/17 02:42:22;;;;;;;9.27;5.90;;;;;;;13.21;58.85;97925.19;4943701;28;20268;-75
2023/02/17 02:44:48;;;;;;;9.65;6.60;;;;;;;13.05;59.01;97923.41;4942736;28;20131;-75
2023/02/17 02:47:38;;;;;;;10.27;6.28;;;;;;;13.24;58.29;97926.53;4942264;28;20195;-75
2023/02/17 02:50:03;;;;;;;12.27;6.65;;;;;;;12.83;60.61;97916.31;4944197;28;20282;-75
2023/02/17 02:52:33;;;;;;;9.60;5.97;;;;;;;12.55;61.72;97925.84;4942481;28;20167;-74
2023/02/17 02:55:15;;;;;;;12.40;6.05;;;;;;;12.65;62.12;97921.81;4938040;28;20712;-75
2023/02/17 02:57:51;;;;;;;10.95;6.97;;;;;;;12.62;63.20;97915.22;4952571;28;20288;-75
2023/02/17 03:00:22;;;;;;;11.57;6.38;;;;;;;12.56;63.16;97916.22;4944476;28;20769;-75
2023/02/17 03:02:57;;;;;;;14.38;7.13;;;;;;;12.34;65.46;97909.06;4943575;28;20229;-75
2023/02/17 03:05:22;;;;;;;11.52;7.40;;;;;;;12.51;63.83;97908.28;4920040;28;20184;-75
2023/02/17 03:07:53;;;;;;;10.98;7.38;;;;;;;12.33;65.08;97906.69;4940234;28;20696;-75
2023/02/17 03:10:18;;;;;;;10.50;8.10;;;;;;;12.41;64.81;97902.91;4925097;28;20654;-75
2023/02/17 03:12:44;;;;;;;11.82;6.88;;;;;;;12.39;65.43;97905.75;4922800;28;20251;-75
2023/02/17 03:15:22;;;;;;;12.45;8.93;;;;;;;12.54;65.13;97902.56;4926026;28;20193;-75
2023/02/17 03:17:48;;;;;;;13.20;8.18;;;;;;;12.28;65.99;97904.00;4895767;28;20211;-75
2023/02/17 03:20:14;;;;;;;11.50;8.32;;;;;;;12.05;67.00;97903.13;4908644;28;20340;-75
2023/02/17 03:22:43;;;;;;;11.07;6.72;;;;;;;12.24;65.96;97895.06;4907138;28;20169;-75
2023/02/17 03:25:11;;;;;;;16.27;8.90;;;;;;;12.28;66.25;97898.78;4936615;28;20266;-75
2023/02/17 03:27:37;;;;;;;12.25;7.65;;;;;;;12.21;66.39;97896.31;4923046;28;20246;-75
2023/02/17 03:30:03;;;;;;;11.13;7.53;;;;;;;11.91;67.64;97886.16;4901216;28;20641;-74
2023/02/17 03:32:28;;;;;;;11.85;8.15;;;;;;;11.89;67.67;97891.59;4927145;28;20236;-75
2023/02/17 03:34:53;;;;;;;12.90;7.43;;;;;;;12.12;67.25;97890.69;4910498;28;20254;-75
2023/02/17 03:37:19;;;;;;;11.43;7.63;;;;;;;12.01;67.31;97880.31;4927016;28;20712;-75
2023/02/17 03:39:44;;;;;;;11.30;6.88;;;;;;;11.93;67.67;97881.50;4943998;28;20315;-74
2023/02/17 03:42:10;;;;;;;11.32;8.40;;;;;;;11.99;67.97;97883.16;4927911;28;20346;-75
2023/02/17 03:44:35;;;;;;;11.02;7.68;;;;;;;12.06;67.74;97886.41;4927962;28;20275;-75
2023/02/17 03:47:00;;;;;;;11.02;7.43;;;;;;;11.97;68.74;97895.66;4924826;28;20259;-75
2023/02/17 03:49:26;;;;;;;11.43;7.20;;;;;;;12.09;67.62;97890.38;4928782;28;20262;-75
2023/02/17 03:51:51;;;;;;;12.32;7.60;;;;;;;11.90;68.60;97887.16;4917262;28;20283;-75
2023/02/17 03:54:16;;;;;;;11.43;6.95;;;;;;;11.76;69.17;97890.06;4927144;28;20177;-74
2023/02/17 03:56:42;;;;;;;12.13;6.97;;;;;;;11.78;69.50;97892.44;4924128;28;20220;-75
2023/02/17 03:59:07;;;;;;;11.38;7.13;;;;;;;11.71;69.47;97884.75;4909626;28;20196;-75
2023/02/17 04:01:32;;;;;;;9.80;6.97;;;;;;;12.14;68.02;97886.03;4941638;28;20349;-74
2023/02/17 04:03:58;;;;;;;10.38;7.00;;;;;;;12.06;68.54;97877.81;4922109;28;20531;-75
2023/02/17 04:06:23;;;;;;;10.27;6.80;;;;;;;12.10;67.93;97881.53;4924939;28;20719;-75
2023/02/17 04:08:48;;;;;;;9.32;6.72;;;;;;;11.96;68.94;97886.25;4928435;28;20208;-75
2023/02/17 04:11:16;;;;;;;10.07;6.80;;;;;;;11.85;69.68;97892.31;4928329;28;20238;-74
2023/02/17 04:13:41;;;;;;;10.18;6.70;;;;;;;12.21;67.97;97896.31;4922932;28;20255;-75
2023/02/17 04:16:08;;;;;;;9.80;6.55;;;;;;;12.22;68.29;97890.09;4931379;28;20208;-75
2023/02/17 04:18:34;;;;;;;10.30;6.00;;;;;;;12.01;69.17;97888.94;4909483;28;20216;-75
2023/02/17 04:21:00;;;;;;;11.77;6.10;;;;;;;12.21;68.37;97892.94;4941229;28;20209;-77
2023/02/17 04:23:25;;;;;;;8.45;5.50;;;;;;;12.17;68.38;97903.84;4923197;28;20224;-74
2023/02/17 04:25:50;;;;;;;8.13;5.93;;;;;;;12.09;68.77;97885.94;4909391;28;20247;-75
2023/02/17 04:28:16;;;;;;;10.77;6.32;;;;;;;11.83;69.57;97896.97;4906243;28;20248;-75
2023/02/17 04:30:43;;;;;;;8.20;6.22;;;;;;;11.88;69.88;97908.28;4909543;28;20754;-75
2023/02/17 04:33:09;;;;;;;7.95;5.65;;;;;;;12.11;69.28;97901.38;4941807;28;20379;-74
2023/02/17 04:35:34;;;;;;;8.55;5.30;;;;;;;12.16;68.67;97902.25;4925490;28;20393;-75
2023/02/17 04:38:00;;;;;;;8.55;5.95;;;;;;;12.06;69.08;97896.84;4924446;28;20208;-75
2023/02/17 04:40:25;;;;;;;8.90;5.53;;;;;;;12.16;68.92;97899.63;4926624;28;20285;-75
2023/02/17 04:42:50;;;;;;;8.10;5.40;;;;;;;12.15;68.71;97894.69;4909758;28;20716;-75
2023/02/17 04:45:16;;;;;;;6.90;5.40;;;;;;;11.98;69.61;97892.03;4922892;28;20643;-75
2023/02/17 04:47:41;;;;;;;7.85;5.68;;;;;;;11.77;70.84;97891.66;4922702;28;20635;-75
2023/02/17 04:50:08;;;;;;;10.73;6.13;;;;;;;11.98;70.24;97890.22;4925126;28;20279;-75
2023/02/17 04:52:36;;;;;;;9.07;5.60;;;;;;;11.96;70.06;97886.25;4926700;28;20277;-75
2023/02/17 04:55:02;;;;;;;6.88;4.90;;;;;;;11.56;71.99;97887.88;4905849;28;20322;-74
2023/02/17 04:57:27;;;;;;;8.80;5.30;;;;;;;12.04;70.13;97892.91;4939105;28;20687;-74
2023/02/17 04:59:53;;;;;;;7.65;5.63;;;;;;;12.07;69.62;97888.00;4904167;28;20288;-75
2023/02/17 05:02:18;;;;;;;8.18;5.70;;;;;;;12.26;69.41;97891.19;4938427;28;20207;-75
2023/02/17 05:04:44;;;;;;;6.53;4.80;;;;;;;11.83;70.80;97876.88;4923981;28;20231;-75
2023/02/17 05:07:09;;;;;;;6.30;4.68;;;;;;;11.96;70.04;97878.41;4939540;28;20212;-74
2023/02/17 05:09:34;;;;;;;6.18;4.70;;;;;;;11.79;70.61;97881.00;4923254;28;20252;-75
2023/02/17 05:12:01;;;;;;;7.78;4.53;;;;;;;11.93;71.01;97881.50;4923149;28;20287;-74
2023/02/17 05:14:27;;;;;;;7.82;4.53;;;;;;;11.89;70.92;97880.34;4911288;28;20225;-75
2023/02/17 05:16:53;;;;;;;6.32;4.63;;;;;;;12.11;69.89;97878.66;4907193;28;20627;-75
2023/02/17 05:19:18;;;;;;;6.60;4.82;;;;;;;12.27;69.29;97881.53;4924631;28;20174;-75
2023/02/17 05:21:43;;;;;;;5.80;4.50;;;;;;;12.26;69.49;97885.97;4941494;28;20231;-75
2023/02/17 05:24:09;;;;;;;6.78;4.18;;;;;;;12.00;70.47;97889.97;4926763;28;20212;-75
2023/02/17 05:26:34;;;;;;;6.13;4.60;;;;;;;12.11;70.13;97893.53;4920680;28;20303;-75
2023/02/17 05:28:59;;;;;;;7.22;4.95;;;;;;;12.20;69.73;97897.38;4910169;28;20195;-75
2023/02/17 05:31:25;;;;;;;5.10;4.40;;;;;;;12.01;70.97;97894.16;4924883;28;20273;-74
2023/02/17 05:33:52;;;;;;;6.63;4.30;;;;;;;11.84;71.72;97896.75;4907230;28;20833;-74
2023/02/17 05:36:18;;;;;;;7.13;4.72;;;;;;;12.06;71.03;97896.06;4923242;28;20212;-74
2023/02/17 05:38:47;;;;;;;6.05;5.25;;;;;;;11.83;71.50;97900.34;4924320;28;20233;-75
2023/02/17 05:41:13;;;;;;;7.35;4.95;;;;;;;11.94;71.47;97888.31;4924720;28;20198;-75
2023/02/17 05:43:39;;;;;;;5.70;4.75;;;;;;;12.03;71.31;97891.31;4920534;28;20206;-74
2023/02/17 05:46:05;;;;;;;5.85;4.40;;;;;;;12.03;71.17;97891.31;4905519;28;20197;-74
2023/02/17 05:48:30;;;;;;;6.25;4.95;;;;;;;12.26;70.34;97887.78;4925523;28;20170;-75
2023/02/17 05:50:56;;;;;;;5.60;4.40;;;;;;;12.06;70.79;97889.03;4909115;28;20353;-75
2023/02/17 05:53:21;;;;;;;7.25;5.28;;;;;;;11.94;71.70;97876.06;4924116;28;20227;-75
2023/02/17 05:55:47;;;;;;;6.47;4.60;;;;;;;12.03;71.03;97886.91;4902084;28;20263;-75
2023/02/17 05:58:12;;;;;;;5.57;4.78;;;;;;;12.17;70.80;97887.38;4927930;28;20206;-74
2023/02/17 06:00:37;;;;;;;4.78;4.10;;;;;;;12.14;71.05;97899.09;4927143;28;20280;-75
2023/02/17 06:03:03;;;;;;;5.53;4.40;;;;;;;12.10;71.22;97894.59;4914940;28;20308;-75
2023/02/17 06:05:28;;;;;;;5.20;4.05;;;;;;;12.07;70.92;97898.44;4925473;28;20646;-75
2023/02/17 06:07:53;;;;;;;5.47;4.40;;;;;;;12.13;71.34;97904.53;4933627;28;20767;-75
2023/02/17 06:10:19;;;;;;;6.35;4.47;;;;;;;12.14;70.49;97899.09;4923977;28;20759;-75
2023/02/17 06:12:44;;;;;;;5.32;4.60;;;;;;;12.30;70.38;97891.50;4936113;28;20373;-74
2023/02/17 06:15:10;;;;;;;5.68;4.25;;;;;;;12.39;69.57;97897.13;4915062;28;20270;-75
2023/02/17 06:17:35;;;;;;;4.80;3.92;;;;;;;12.27;70.70;97902.41;4940106;28;20634;-75
2023/02/17 06:20:00;;;;;;;5.90;4.20;;;;;;;12.21;70.68;97900.75;4937602;28;20279;-74
2023/02/17 06:22:26;;;;;;;4.00;3.28;;;;;;;12.11;71.31;97893.53;4922660;28;20281;-75
2023/02/17 06:24:51;;;;;;;6.32;4.18;;;;;;;12.28;70.14;97904.00;4905692;28;20197;-75
2023/02/17 06:27:16;;;;;;;4.75;3.55;;;;;;;12.30;70.12;97904.56;4907889;28;20200;-75
2023/02/17 06:29:43;;;;;;;5.47;3.92;;;;;;;12.31;70.64;97913.97;4904193;28;20190;-75
2023/02/17 06:32:08;;;;;;;5.63;3.88;;;;;;;12.26;70.11;97916.50;4936961;28;20639;-75
2023/02/17 06:34:34;;;;;;;4.75;3.78;;;;;;;12.41;70.64;97921.19;4922159;28;20595;-75
2023/02/17 06:37:01;;;;;;;6.13;4.20;;;;;;;12.17;71.25;97911.66;4907287;28;20216;-75
2023/02/17 06:39:27;;;;;;;4.38;3.35;;;;;;;12.28;71.40;97919.66;4907766;28;20212;-75
2023/02/17 06:41:52;;;;;;;4.30;2.95;;;;;;;12.15;71.47;97908.50;4905474;28;20658;-75
2023/02/17 06:44:17;;;;;;;4.47;3.50;;;;;;;12.20;71.12;97907.81;4922148;28;20568;-75
2023/02/17 06:46:45;;;;;;;3.95;3.55;;;;;;;12.33;70.33;97914.53;4923974;28;20207;-75
2023/02/17 06:49:10;;;;;;;5.15;3.30;;;;;;;12.28;70.83;97915.22;4929611;28;20266;-74
2023/02/17 06:51:36;;;;;;;4.75;3.42;;;;;;;12.15;71.70;97913.72;4938789;28;20286;-75
2023/02/17 06:54:01;;;;;;;4.38;3.58;;;;;;;12.25;71.53;97926.16;4901094;28;20200;-75
2023/02/17 06:56:26;;;;;;;4.85;3.20;;;;;;;12.49;70.24;97932.03;4926890;28;20341;-75
2023/02/17 06:58:52;;;;;;;4.88;3.85;;;;;;;12.43;70.64;97927.75;4910616;28;20185;-75
2023/02/17 07:01:20;;;;;;;4.80;3.40;;;;;;;12.63;70.48;97942.13;4906472;28;20189;-75
2023/02/17 07:03:45;;;;;;;3.90;3.28;;;;;;;12.50;70.92;97940.66;4924036;28;20290;-75
2023/02/17 07:06:10;;;;;;;5.40;3.50;;;;;;;12.41;70.82;97940.25;4942587;28;20193;-75
2023/02/17 07:08:36;;;;;;;4.13;3.28;;;;;;;12.47;71.31;97949.75;4907613;28;20391;-74
2023/02/17 07:11:10;;;;;;;4.20;3.58;;;;;;;12.67;70.20;97958.94;4910556;28;20205;-75
2023/02/17 07:13:36;;;;;;;4.97;3.33;;;;;;;12.39;71.28;97959.78;4926956;28;20166;-75
2023/02/17 07:16:02;;;;;;;6.53;3.47;;;;;;;12.59;70.96;97975.00;4909905;28;20174;-75
2023/02/17 07:18:27;;;;;;;4.10;2.97;;;;;;;12.64;70.34;97985.53;4911266;28;20042;-75
2023/02/17 07:20:53;;;;;;;3.63;3.13;;;;;;;12.69;70.64;97988.22;4914863;28;20020;-74
2023/02/17 07:23:18;;;;;;;3.85;3.17;;;;;;;12.62;70.80;97993.59;4949146;28;20730;-73
2023/02/17 07:25:43;;;;;;;3.03;2.63;;;;;;;12.58;71.01;97999.53;4928448;28;20033;-74
2023/02/17 07:28:09;;;;;;;3.90;3.13;;;;;;;12.72;70.05;97991.16;4921310;28;20194;-75
2023/02/17 07:30:41;;;;;;;3.10;2.60;;;;;;;12.61;71.28;97996.44;4919722;28;20610;-74
2023/02/17 07:33:06;;;;;;;3.97;2.65;;;;;;;12.62;70.93;98003.28;4905863;28;20220;-75
2023/02/17 07:35:32;;;;;;;3.47;2.95;;;;;;;12.43;71.83;98006.09;4909965;28;20256;-75
2023/02/17 07:37:58;;;;;;;3.40;3.10;;;;;;;12.58;70.54;97996.91;4923071;28;20175;-74
2023/02/17 07:40:24;;;;;;;3.45;2.83;;;;;;;12.56;70.63;97999.81;4923709;28;20205;-74
2023/02/17 07:42:49;;;;;;;3.28;2.60;;;;;;;12.56;71.29;97999.81;4933159;28;20277;-75
2023/02/17 07:45:15;;;;;;;3.60;2.95;;;;;;;12.32;72.16;97999.91;4894334;28;20286;-75
2023/02/17 07:47:40;;;;;;;3.50;2.88;;;;;;;12.55;71.71;97995.59;4929410;28;20279;-75
2023/02/17 07:50:06;;;;;;;3.50;2.85;;;;;;;12.71;71.02;97991.38;4923905;28;20277;-75
2023/02/17 07:52:32;;;;;;;3.50;3.10;;;;;;;12.82;70.53;97993.16;4927579;28;20188;-75
2023/02/17 07:55:23;;;;;;;3.60;2.92;;;;;;;12.79;71.11;97991.00;4929895;28;20299;-75
2023/02/17 07:57:48;;;;;;;4.50;2.60;;;;;;;12.73;71.18;97984.09;4893880;28;20282;-75
2023/02/17 08:00:14;;;;;;;3.65;2.67;;;;;;;12.55;71.58;97975.47;4907699;28;20560;-76
2023/02/17 08:02:40;;;;;;;3.42;2.40;;;;;;;12.59;71.71;97988.84;4923255;28;20177;-75
2023/02/17 08:05:05;;;;;;;3.60;3.13;;;;;;;12.38;71.99;97977.28;4935844;28;20523;-74
2023/02/17 08:07:31;;;;;;;4.07;3.03;;;;;;;12.61;71.86;97975.56;4926403;28;20272;-75
2023/02/17 08:15:25;;;;;;;4.10;3.25;;;;;;;12.27;73.16;97950.22;4926363;28;20375;-75
2023/02/17 08:17:52;;;;;;;3.72;3.20;;;;;;;12.59;72.29;97944.44;4909943;28;20313;-74
2023/02/17 08:20:17;;;;;;;5.97;3.90;;;;;;;12.73;71.08;97943.09;4908054;28;20250;-75
2023/02/17 08:22:43;;;;;;;4.60;3.45;;;;;;;12.66;71.45;97945.09;4909346;28;20275;-75
2023/02/17 08:25:08;;;;;;;4.82;3.92;;;;;;;12.79;71.19;97962.25;4896915;28;20259;-75
2023/02/17 08:27:34;;;;;;;4.38;3.30;;;;;;;12.76;71.08;97967.16;4918001;28;20751;-74
2023/02/17 08:29:59;;;;;;;7.10;4.40;;;;;;;12.76;71.73;97986.25;4910799;28;20287;-74
2023/02/17 08:32:25;;;;;;;6.25;3.95;;;;;;;12.63;72.31;97989.16;4925711;28;20197;-75
2023/02/17 08:34:54;;;;;;;5.07;3.65;;;;;;;12.89;71.17;97978.09;4926228;28;20228;-75
2023/02/17 08:37:20;;;;;;;6.03;4.28;;;;;;;12.72;71.33;97972.09;4911730;28;20192;-75
2023/02/17 08:39:45;;;;;;;5.88;4.20;;;;;;;12.54;72.06;97976.53;4925823;28;20650;-75
2023/02/17 08:42:11;;;;;;;5.20;3.88;;;;;;;12.58;72.52;97982.06;4913127;28;20316;-75
2023/02/17 08:44:36;;;;;;;5.63;4.30;;;;;;;12.84;71.95;97980.63;4925215;28;20684;-75
2023/02/17 08:47:03;;;;;;;4.80;4.13;;;;;;;12.60;72.47;97971.38;4909362;28;20205;-75
2023/02/17 08:49:31;;;;;;;5.85;4.45;;;;;;;12.79;72.19;97962.25;4926372;28;20361;-75
2023/02/17 08:51:56;;;;;;;6.10;4.07;;;;;;;12.83;71.87;97984.25;4902318;28;20178;-75
2023/02/17 08:54:22;;;;;;;5.47;3.90;;;;;;;12.73;72.66;97991.94;4925910;28;20228;-75
2023/02/17 08:56:47;;;;;;;6.25;3.90;;;;;;;12.50;72.97;97985.84;4924035;28;20178;-75
2023/02/17 08:59:13;;;;;;;5.60;4.57;;;;;;;12.69;72.18;97989.00;4909079;28;20212;-75
2023/02/17 09:01:38;;;;;;;6.82;5.03;;;;;;;12.57;72.83;97996.13;4925340;28;20685;-74
2023/02/17 09:04:05;;;;;;;5.32;4.53;;;;;;;12.77;72.46;97998.28;4905846;28;20192;-74
2023/02/17 09:06:51;;;;;;;6.70;4.93;;;;;;;12.96;71.51;97995.44;4903681;28;20217;-75
2023/02/17 09:09:21;;;;;;;6.93;4.60;;;;;;;12.73;72.37;98000.59;4915276;28;20287;-75
2023/02/17 09:11:46;;;;;;;6.22;4.57;;;;;;;12.61;72.70;98004.28;4920412;28;20623;-77
2023/02/17 09:14:12;;;;;;;6.25;4.80;;;;;;;12.60;72.81;98010.56;4924184;28;20224;-75
2023/02/17 09:16:38;;;;;;;5.78;4.38;;;;;;;12.83;72.14;98023.47;4940266;28;20212;-74
2023/02/17 09:19:03;;;;;;;5.75;4.32;;;;;;;12.84;71.49;98017.22;4904397;28;20204;-75
2023/02/17 09:21:28;;;;;;;5.00;4.15;;;;;;;12.84;71.84;98026.88;4922185;28;20257;-75
2023/02/17 09:23:54;;;;;;;6.10;4.68;;;;;;;12.75;71.71;98039.56;4924313;28;20200;-75
2023/02/17 09:26:19;;;;;;;6.60;4.93;;;;;;;12.70;72.24;98035.03;4924531;28;21424;-74
2023/02/17 09:28:45;;;;;;;5.95;4.72;;;;;;;12.65;72.41;98026.31;4923620;28;20309;-74
2023/02/17 09:31:14;;;;;;;5.47;4.20;;;;;;;12.48;72.90;98024.47;4923127;28;20292;-75
2023/02/17 09:33:40;;;;;;;6.20;4.47;;;;;;;12.94;71.88;98016.59;4908321;28;20271;-75
2023/02/17 09:36:06;;;;;;;5.90;4.43;;;;;;;12.92;71.77;98014.22;4906558;28;20560;-75
2023/02/17 09:38:32;;;;;;;6.30;4.65;;;;;;;12.86;71.80;98009.91;4924798;28;20361;-75
2023/02/17 09:41:18;;;;;;;5.82;4.28;;;;;;;12.88;71.68;98015.69;4936155;28;20328;-74
2023/02/17 09:43:43;;;;;;;5.38;3.97;;;;;;;12.98;71.74;98020.28;4904949;28;20718;-75
2023/02/17 09:46:14;;;;;;;6.45;4.45;;;;;;;13.08;71.66;98023.06;4922507;28;20187;-75
2023/02/17 09:48:39;;;;;;;5.53;4.05;;;;;;;12.99;72.46;98021.91;4922731;28;20208;-75
2023/02/17 09:51:18;;;;;;;5.70;4.05;;;;;;;13.28;71.54;98019.16;4940550;28;20170;-74
2023/02/17 09:54:03;;;;;;;6.28;3.88;;;;;;;13.24;71.00;98029.28;4925931;28;20279;-75
2023/02/17 09:56:35;;;;;;;5.50;3.67;;;;;;;12.95;71.96;98026.00;4921643;28;20253;-75
2023/02/17 09:59:07;;;;;;;5.68;4.40;;;;;;;13.25;71.36;98030.88;4923659;28;20361;-75
2023/02/17 10:01:33;;;;;;;4.07;3.33;;;;;;;13.16;71.53;98027.13;4925770;28;20247;-75
2023/02/17 10:04:07;;;;;;;4.10;3.08;;;;;;;13.07;71.88;98031.16;4922734;28;20169;-75
2023/02/17 10:06:35;;;;;;;4.63;3.53;;;;;;;13.03;71.82;98037.88;4918839;28;20350;-74
2023/02/17 10:09:17;;;;;;;3.80;3.22;;;;;;;12.95;72.12;98027.81;4906286;28;20197;-75
2023/02/17 10:11:55;;;;;;;5.80;3.65;;;;;;;12.79;72.56;98035.44;4922079;28;20189;-75
2023/02/17 10:14:27;;;;;;;4.15;3.75;;;;;;;13.00;71.77;98023.47;4921557;28;20631;-75
2023/02/17 10:16:59;;;;;;;4.80;3.47;;;;;;;12.86;72.13;98032.66;4900226;28;20230;-75
2023/02/17 10:19:28;;;;;;;4.80;3.53;;;;;;;12.90;71.70;98031.97;4891560;28;20201;-75
2023/02/17 10:22:11;;;;;;;6.45;4.32;;;;;;;12.48;73.31;98039.34;4900481;28;20204;-74
2023/02/17 10:24:37;;;;;;;7.20;4.80;;;;;;;12.64;72.75;98037.78;4915309;28;20641;-75
2023/02/17 10:27:11;;;;;;;5.80;4.47;;;;;;;12.61;72.75;98048.72;4904474;28;20189;-74
2023/02/17 10:30:00;;;;;;;5.65;4.45;;;;;;;12.98;71.89;98049.06;4908158;28;20658;-75
2023/02/17 10:32:27;;;;;;;7.00;4.97;;;;;;;12.61;73.16;98062.59;4938683;28;20279;-75
2023/02/17 10:35:22;;;;;;;6.57;4.53;;;;;;;12.86;71.99;98059.59;4908044;28;20392;-75
2023/02/17 10:38:01;;;;;;;5.68;4.40;;;;;;;12.95;72.30;98059.19;4906497;28;20212;-74
2023/02/17 10:40:28;;;;;;;6.10;4.65;;;;;;;12.72;72.29;98061.72;4921551;28;20696;-74
2023/02/17 10:42:59;;;;;;;6.05;4.35;;;;;;;12.96;72.39;98055.56;4923743;28;20193;-74
2023/02/17 10:45:31;;;;;;;5.78;4.57;;;;;;;12.98;72.22;98053.50;4891640;28;20999;-74
2023/02/17 10:48:03;;;;;;;5.63;4.35;;;;;;;12.88;72.37;98059.34;4918980;28;20170;-74
2023/02/17 10:50:29;;;;;;;5.95;4.43;;;;;;;12.86;72.17;98056.97;4927775;28;20216;-75
2023/02/17 10:52:55;;;;;;;5.40;4.10;;;;;;;13.10;71.92;98056.81;4920538;28;20202;-75
2023/02/17 10:55:28;;;;;;;6.47;4.47;;;;;;;13.07;72.25;98072.97;4904588;28;20342;-75
2023/02/17 10:58:04;;;;;;;6.97;4.30;;;;;;;13.25;71.13;98069.34;4920544;28;20189;-75
2023/02/17 11:00:30;;;;;;;6.30;4.82;;;;;;;13.21;71.19;98066.41;4923497;28;20700;-75
2023/02/17 11:02:55;;;;;;;5.72;4.18;;;;;;;12.83;71.69;98062.66;4923200;28;20167;-75
2023/02/17 11:05:32;;;;;;;6.97;4.55;;;;;;;13.06;71.47;98063.56;4908883;28;20178;-75
2023/02/17 11:08:02;;;;;;;5.68;4.18;;;;;;;13.00;72.06;98054.03;4908521;28;20652;-74
2023/02/17 11:10:35;;;;;;;6.47;4.05;;;;;;;13.13;71.98;98069.41;4923439;28;20192;-75
2023/02/17 11:13:02;;;;;;;5.43;3.55;;;;;;;13.07;71.81;98065.13;4906171;28;20693;-74
2023/02/17 11:15:35;;;;;;;4.95;4.30;;;;;;;13.29;71.30;98065.97;4922405;28;20279;-75
2023/02/17 11:18:09;;;;;;;4.80;3.50;;;;;;;13.30;71.09;98061.56;4921086;28;20650;-75
2023/02/17 11:20:36;;;;;;;3.95;3.38;;;;;;;13.18;71.26;98061.66;4928888;28;20424;-74
2023/02/17 11:23:17;;;;;;;4.20;3.30;;;;;;;13.21;70.96;98053.34;4923190;28;20283;-75
2023/02/17 11:25:53;;;;;;;4.22;3.83;;;;;;;13.32;71.03;98045.66;4927102;28;20212;-75
2023/02/17 11:28:22;;;;;;;4.45;3.40;;;;;;;13.35;71.26;98051.19;4906230;28;20166;-75
2023/02/17 11:30:53;;;;;;;4.70;3.40;;;;;;;13.24;70.59;98039.75;4922122;28;20256;-75
2023/02/17 11:33:48;;;;;;;3.80;3.33;;;;;;;13.53;70.51;98033.66;4913078;28;20175;-75
2023/02/17 11:36:21;;;;;;;4.28;3.40;;;;;;;13.54;70.37;98038.63;4918405;28;20221;-75
2023/02/17 11:38:47;;;;;;;4.55;3.78;;;;;;;13.01;72.45;98029.50;4943227;28;20196;-75
2023/02/17 11:41:12;;;;;;;5.30;4.40;;;;;;;13.10;71.85;98036.69;4911068;28;20208;-74